Time;durP1;ratioP1;P1;durP2;ratioP2;P2;SDS_P1;SDS_P2;PMS_P1;PMS_P2;Temp;Humidity;BMP_temperature;BMP_pressure;BME280_temperature;BME280_humidity;BME280_pressure;Samples;Min_cycle;Max_cycle;Signal;HPM_P1;HPM_P2
2021/05/09 00:00:12;;;;;;;5.05;2.95;;;;;;;10.42;nan;101414.78;5082648;28;20138;-52
2021/05/09 00:02:38;;;;;;;6.38;2.83;;;;;;;10.42;nan;101412.13;5083932;28;20473;-49
2021/05/09 00:05:04;;;;;;;9.60;3.13;;;;;;;10.44;nan;101399.31;5086026;28;20061;-50
2021/05/09 00:07:29;;;;;;;6.53;3.40;;;;;;;10.44;nan;101397.44;5082595;28;20032;-49
2021/05/09 00:09:55;;;;;;;4.85;2.80;;;;;;;10.45;nan;101395.56;5084737;28;20024;-52
2021/05/09 00:12:20;;;;;;;8.32;3.42;;;;;;;10.51;nan;101400.00;5085648;28;20074;-49
2021/05/09 00:14:46;;;;;;;6.43;3.00;;;;;;;10.48;nan;101406.63;5084146;28;20046;-49
2021/05/09 00:17:11;;;;;;;4.32;2.78;;;;;;;10.46;nan;101392.66;5064834;28;20058;-49
2021/05/09 00:19:37;;;;;;;5.90;2.80;;;;;;;10.46;nan;101387.31;5081110;28;20063;-49
2021/05/09 00:22:02;;;;;;;3.65;2.60;;;;;;;10.48;nan;101381.72;5081136;28;20032;-50
2021/05/09 00:24:28;;;;;;;3.85;2.78;;;;;;;10.44;nan;101378.69;5083670;28;20114;-50
2021/05/09 00:26:53;;;;;;;6.25;3.05;;;;;;;10.40;nan;101382.84;5082175;28;20032;-49
2021/05/09 00:29:19;;;;;;;4.57;3.15;;;;;;;10.50;nan;101382.28;5083413;28;20340;-49
2021/05/09 00:31:44;;;;;;;5.43;3.15;;;;;;;10.50;nan;101371.56;5082764;28;20584;-49
2021/05/09 00:34:10;;;;;;;4.72;3.28;;;;;;;10.50;nan;101366.22;5083339;28;20035;-49
2021/05/09 00:36:35;;;;;;;5.97;3.40;;;;;;;10.46;nan;101371.22;5082906;28;20020;-49
2021/05/09 00:39:01;;;;;;;6.03;3.60;;;;;;;10.44;nan;101367.16;5082839;28;20141;-50
2021/05/09 00:41:26;;;;;;;8.55;3.45;;;;;;;10.44;nan;101372.50;5082481;28;20031;-49
2021/05/09 00:43:52;;;;;;;5.68;3.70;;;;;;;10.46;nan;101357.00;5084562;28;20620;-50
2021/05/09 00:46:17;;;;;;;5.82;3.40;;;;;;;10.42;nan;101351.31;5083922;28;20028;-49
2021/05/09 00:48:43;;;;;;;6.80;3.42;;;;;;;10.42;nan;101345.94;5084141;28;20034;-49
2021/05/09 00:51:08;;;;;;;6.15;3.42;;;;;;;10.26;nan;101343.97;5084788;28;20024;-50
2021/05/09 00:53:35;;;;;;;6.57;3.92;;;;;;;10.26;nan;101341.28;5081719;28;20062;-49
2021/05/09 00:56:02;;;;;;;4.85;3.60;;;;;;;10.35;nan;101334.53;5082642;28;20337;-49
2021/05/09 00:58:28;;;;;;;7.43;3.78;;;;;;;10.12;nan;101347.84;5080854;28;20032;-51
2021/05/09 01:00:53;;;;;;;7.38;3.92;;;;;;;10.27;nan;101334.88;5083499;28;20492;-50
2021/05/09 01:03:26;;;;;;;6.65;3.80;;;;;;;10.26;nan;101335.94;5082896;28;20024;-50
2021/05/09 01:05:53;;;;;;;5.70;3.28;;;;;;;10.25;nan;101332.44;5065505;28;20260;-51
2021/05/09 01:08:18;;;;;;;5.90;3.40;;;;;;;10.29;nan;101324.75;5083547;28;20386;-50
2021/05/09 01:10:44;;;;;;;5.07;3.63;;;;;;;10.36;nan;101321.94;5083203;28;20044;-48
2021/05/09 01:13:10;;;;;;;6.05;3.97;;;;;;;10.28;nan;101321.25;5084134;28;20028;-52
2021/05/09 01:15:36;;;;;;;5.18;3.67;;;;;;;10.25;nan;101323.59;5082614;28;20036;-52
2021/05/09 01:18:01;;;;;;;5.93;4.05;;;;;;;10.25;nan;101326.25;5084125;28;20024;-52
2021/05/09 01:20:34;;;;;;;5.70;3.60;;;;;;;10.27;nan;101319.63;5083482;28;20164;-52
2021/05/09 01:22:59;;;;;;;5.88;3.47;;;;;;;10.32;nan;101315.44;5085431;28;20059;-51
2021/05/09 01:25:25;;;;;;;5.82;3.50;;;;;;;10.34;nan;101314.13;5079672;28;20489;-53
2021/05/09 01:27:50;;;;;;;7.13;3.50;;;;;;;10.37;nan;101319.03;5084292;28;20024;-48
2021/05/09 01:30:16;;;;;;;8.38;4.22;;;;;;;10.34;nan;101308.78;5082642;28;20127;-50
2021/05/09 01:32:42;;;;;;;6.45;3.67;;;;;;;10.41;nan;101309.50;5082748;28;20063;-49
2021/05/09 01:35:08;;;;;;;7.45;4.38;;;;;;;10.37;nan;101299.47;5083127;28;20032;-49
2021/05/09 01:37:34;;;;;;;6.40;4.03;;;;;;;10.36;nan;101304.00;5082489;28;20082;-50
2021/05/09 01:39:59;;;;;;;6.82;3.75;;;;;;;10.34;nan;101307.97;5083735;28;20051;-49
2021/05/09 01:42:25;;;;;;;4.05;3.25;;;;;;;10.34;nan;101308.78;5082720;28;20477;-49
2021/05/09 01:44:52;;;;;;;7.57;3.90;;;;;;;10.29;nan;101309.50;5083135;28;20107;-49
2021/05/09 01:47:18;;;;;;;7.13;4.88;;;;;;;10.33;nan;101301.78;5083391;28;20034;-50
2021/05/09 01:49:43;;;;;;;7.35;4.32;;;;;;;10.26;nan;101303.78;5082125;28;20020;-49
2021/05/09 01:52:09;;;;;;;7.20;3.97;;;;;;;10.25;nan;101307.50;5082397;28;20106;-51
2021/05/09 01:54:34;;;;;;;7.03;4.40;;;;;;;10.00;nan;101300.44;5082642;28;20032;-50
2021/05/09 01:56:59;;;;;;;6.82;4.40;;;;;;;10.20;nan;101307.34;5080459;28;20031;-49
2021/05/09 01:59:25;;;;;;;5.50;4.20;;;;;;;10.10;nan;101317.81;5061450;28;20020;-50
2021/05/09 02:01:50;;;;;;;7.85;4.25;;;;;;;9.97;nan;101316.97;5077264;28;20039;-49
2021/05/09 02:04:16;;;;;;;6.93;3.90;;;;;;;10.02;nan;101323.50;5062413;28;20020;-50
2021/05/09 02:06:41;;;;;;;8.23;4.57;;;;;;;9.75;nan;101310.53;5066759;28;20436;-52
2021/05/09 02:09:07;;;;;;;8.65;5.22;;;;;;;9.97;nan;101308.94;5080086;28;20024;-52
2021/05/09 02:11:32;;;;;;;8.05;4.90;;;;;;;10.11;nan;101304.19;5082668;28;20139;-52
2021/05/09 02:13:58;;;;;;;6.75;5.32;;;;;;;10.10;nan;101307.13;5083219;28;20059;-49
2021/05/09 02:16:23;;;;;;;9.18;4.55;;;;;;;10.14;nan;101313.63;5082315;28;20022;-49
2021/05/09 02:18:49;;;;;;;7.90;4.68;;;;;;;9.88;nan;101313.00;5082907;28;20267;-51
2021/05/09 02:21:14;;;;;;;7.75;4.75;;;;;;;9.96;nan;101295.78;5082901;28;20424;-52
2021/05/09 02:23:40;;;;;;;7.82;5.10;;;;;;;10.02;nan;101297.53;5085294;28;20028;-51
2021/05/09 02:26:05;;;;;;;7.15;5.03;;;;;;;10.05;nan;101299.75;5086388;28;20650;-48
2021/05/09 02:28:31;;;;;;;8.55;5.15;;;;;;;10.14;nan;101292.22;5085678;28;20259;-52
2021/05/09 02:30:56;;;;;;;7.10;4.38;;;;;;;10.02;nan;101299.41;5083268;28;20028;-50
2021/05/09 02:33:21;;;;;;;8.80;4.15;;;;;;;10.00;nan;101291.59;5083339;28;20032;-48
2021/05/09 02:35:47;;;;;;;6.47;4.63;;;;;;;9.86;nan;101301.69;5085958;28;20032;-49
2021/05/09 02:38:13;;;;;;;8.05;4.70;;;;;;;10.01;nan;101282.53;5086122;28;20023;-49
2021/05/09 02:40:38;;;;;;;9.52;5.50;;;;;;;10.09;nan;101274.16;5086231;28;20024;-50
2021/05/09 02:43:04;;;;;;;7.03;4.60;;;;;;;10.07;nan;101272.78;5084518;28;20036;-49
2021/05/09 02:45:29;;;;;;;6.82;4.85;;;;;;;9.99;nan;101288.13;5086710;28;20089;-48
2021/05/09 02:47:55;;;;;;;7.05;4.72;;;;;;;9.82;nan;101280.97;5086509;28;20123;-50
2021/05/09 02:50:20;;;;;;;7.70;5.15;;;;;;;9.86;nan;101280.28;5087036;28;20486;-48
2021/05/09 02:52:46;;;;;;;7.50;4.22;;;;;;;9.97;nan;101273.34;5084009;28;20032;-49
2021/05/09 02:55:12;;;;;;;6.60;5.07;;;;;;;10.04;nan;101259.81;5086731;28;20032;-49
2021/05/09 02:57:37;;;;;;;8.07;5.32;;;;;;;9.98;nan;101264.25;5087270;28;20020;-50
2021/05/09 03:00:05;;;;;;;7.05;4.55;;;;;;;9.94;nan;101253.19;5085958;28;20355;-49
2021/05/09 03:02:30;;;;;;;5.82;4.65;;;;;;;10.09;nan;101250.06;5087322;28;20031;-50
2021/05/09 03:04:56;;;;;;;7.28;4.68;;;;;;;10.15;nan;101233.06;5086413;28;20036;-48
2021/05/09 03:07:22;;;;;;;6.28;4.28;;;;;;;10.18;nan;101229.91;5067944;28;20062;-52
2021/05/09 03:09:47;;;;;;;7.32;4.70;;;;;;;10.18;nan;101231.78;5086924;28;20016;-49
2021/05/09 03:12:13;;;;;;;7.68;5.03;;;;;;;10.23;nan;101226.56;5084087;28;20048;-49
2021/05/09 03:14:38;;;;;;;8.63;4.57;;;;;;;10.19;nan;101230.72;5085649;28;20024;-49
2021/05/09 03:17:04;;;;;;;8.50;4.82;;;;;;;10.22;nan;101241.00;5085725;28;20024;-49
2021/05/09 03:19:29;;;;;;;7.43;4.30;;;;;;;10.12;nan;101251.47;5086021;28;20035;-49
2021/05/09 03:21:55;;;;;;;8.18;4.60;;;;;;;10.11;nan;101264.03;5064448;28;20036;-50
2021/05/09 03:24:20;;;;;;;7.00;4.75;;;;;;;9.98;nan;101257.03;5083260;28;20555;-50
2021/05/09 03:26:46;;;;;;;8.57;4.65;;;;;;;10.12;nan;101252.28;5085480;28;20026;-51
2021/05/09 03:29:11;;;;;;;6.18;4.20;;;;;;;10.11;nan;101261.38;5084921;28;20576;-51
2021/05/09 03:31:37;;;;;;;8.00;4.80;;;;;;;10.13;nan;101264.63;5085682;28;20055;-50
2021/05/09 03:34:03;;;;;;;8.32;4.53;;;;;;;10.11;nan;101263.22;5067178;28;20036;-50
2021/05/09 03:36:28;;;;;;;5.45;3.90;;;;;;;9.78;nan;101266.44;5081136;28;20036;-49
2021/05/09 03:38:54;;;;;;;6.75;4.07;;;;;;;9.82;nan;101271.09;5085854;28;20028;-49
2021/05/09 03:41:22;;;;;;;7.78;4.85;;;;;;;9.95;nan;101265.53;5085193;28;20029;-49
2021/05/09 03:43:47;;;;;;;9.25;5.30;;;;;;;10.00;nan;101254.94;5083883;28;20028;-52
2021/05/09 03:46:13;;;;;;;10.13;5.22;;;;;;;10.06;nan;101255.91;5083922;28;20050;-50
2021/05/09 03:48:38;;;;;;;6.97;4.60;;;;;;;10.06;nan;101255.09;5083033;28;20106;-49
2021/05/09 03:51:04;;;;;;;6.68;5.05;;;;;;;10.05;nan;101250.75;5085675;28;20398;-49
2021/05/09 03:53:30;;;;;;;6.88;4.43;;;;;;;10.05;nan;101256.09;5083667;28;20040;-50
2021/05/09 03:55:57;;;;;;;7.22;4.55;;;;;;;10.13;nan;101253.91;5084600;28;20096;-49
2021/05/09 03:58:23;;;;;;;5.68;4.20;;;;;;;10.02;nan;101262.75;5083899;28;20032;-51
2021/05/09 04:00:48;;;;;;;7.90;5.07;;;;;;;10.07;nan;101256.72;5084391;28;20016;-52
2021/05/09 04:03:29;;;;;;;6.70;4.30;;;;;;;9.98;nan;101245.50;5084659;28;20054;-52
2021/05/09 04:05:55;;;;;;;6.35;4.22;;;;;;;10.00;nan;101252.25;5082881;28;20043;-49
2021/05/09 04:08:22;;;;;;;6.40;4.70;;;;;;;10.10;nan;101240.19;5085513;28;20634;-48
2021/05/09 04:10:49;;;;;;;6.38;4.30;;;;;;;10.02;nan;101249.34;5082655;28;20051;-50
2021/05/09 04:13:15;;;;;;;8.10;4.45;;;;;;;10.12;nan;101251.47;5084785;28;20092;-49
2021/05/09 04:15:41;;;;;;;6.60;4.00;;;;;;;10.18;nan;101253.19;5083139;28;20103;-51
2021/05/09 04:18:07;;;;;;;6.97;4.80;;;;;;;10.16;nan;101244.59;5085054;28;20200;-49
2021/05/09 04:20:33;;;;;;;8.45;4.30;;;;;;;10.28;nan;101246.25;5081591;28;20059;-50
2021/05/09 04:23:15;;;;;;;5.70;4.20;;;;;;;10.34;nan;101244.50;5082360;28;20089;-52
2021/05/09 04:25:47;;;;;;;7.53;5.03;;;;;;;10.33;nan;101239.38;5060480;28;20031;-49
2021/05/09 04:28:12;;;;;;;8.50;4.28;;;;;;;10.35;nan;101238.09;5082828;28;20505;-52
2021/05/09 04:30:38;;;;;;;7.25;4.28;;;;;;;10.39;nan;101241.94;5085490;28;20097;-52
2021/05/09 04:33:06;;;;;;;5.78;4.15;;;;;;;10.50;nan;101240.28;5082265;28;20027;-51
2021/05/09 04:35:32;;;;;;;8.00;4.95;;;;;;;10.57;nan;101232.94;5065230;28;20028;-50
2021/05/09 04:37:59;;;;;;;6.68;4.38;;;;;;;10.56;nan;101228.63;5084879;28;20036;-52
2021/05/09 04:40:26;;;;;;;6.93;4.45;;;;;;;10.61;nan;101226.06;5084127;28;20036;-49
2021/05/09 04:42:52;;;;;;;6.15;4.20;;;;;;;10.66;nan;101226.16;5084097;28;21716;-49
2021/05/09 04:45:18;;;;;;;6.07;3.90;;;;;;;10.66;nan;101228.03;5083259;28;20024;-49
2021/05/09 04:47:43;;;;;;;7.13;4.65;;;;;;;10.68;nan;101231.28;5084679;28;20070;-49
2021/05/09 04:50:10;;;;;;;7.45;4.35;;;;;;;10.74;nan;101227.66;5083143;28;20020;-49
2021/05/09 04:52:36;;;;;;;5.72;4.35;;;;;;;10.75;nan;101230.09;5081465;28;20067;-48
2021/05/09 04:55:03;;;;;;;5.63;4.57;;;;;;;10.71;nan;101223.59;5080419;28;20074;-49
2021/05/09 04:57:29;;;;;;;5.95;4.38;;;;;;;10.73;nan;101226.03;5085399;28;20035;-49
2021/05/09 04:59:54;;;;;;;7.05;4.70;;;;;;;10.88;nan;101226.34;5082870;28;20031;-49
2021/05/09 05:02:20;;;;;;;7.85;4.57;;;;;;;10.97;nan;101230.28;5080376;28;20219;-49
2021/05/09 05:04:45;;;;;;;6.88;4.80;;;;;;;11.01;nan;101228.75;5083765;28;20048;-51
2021/05/09 05:07:11;;;;;;;7.85;4.65;;;;;;;11.02;nan;101230.38;5083894;28;20497;-50
2021/05/09 05:09:39;;;;;;;7.15;4.63;;;;;;;11.08;nan;101232.09;5085137;28;20069;-50
2021/05/09 05:12:06;;;;;;;7.13;4.63;;;;;;;11.15;nan;101224.72;5082995;28;20023;-49
2021/05/09 05:14:31;;;;;;;6.82;4.80;;;;;;;11.17;nan;101227.97;5084527;28;20028;-51
2021/05/09 05:16:57;;;;;;;7.25;4.47;;;;;;;11.23;nan;101220.03;5082633;28;20032;-48
2021/05/09 05:19:22;;;;;;;6.60;4.18;;;;;;;11.31;nan;101217.78;5084287;28;20028;-49
2021/05/09 05:21:48;;;;;;;5.78;4.18;;;;;;;11.22;nan;101211.16;5081263;28;20020;-49
2021/05/09 05:24:16;;;;;;;8.02;4.60;;;;;;;11.18;nan;101218.88;5085030;28;20020;-51
2021/05/09 05:26:41;;;;;;;6.18;5.18;;;;;;;11.17;nan;101219.94;5080983;28;20039;-50
2021/05/09 05:29:07;;;;;;;8.68;4.60;;;;;;;11.09;nan;101214.94;5081642;28;20032;-50
2021/05/09 05:31:33;;;;;;;6.60;4.28;;;;;;;11.05;nan;101216.47;5083525;28;20040;-52
2021/05/09 05:33:59;;;;;;;8.48;4.78;;;;;;;10.90;nan;101210.81;5084068;28;20024;-49
2021/05/09 05:36:25;;;;;;;6.03;4.30;;;;;;;11.15;nan;101214.00;5082495;28;20099;-48
2021/05/09 05:38:51;;;;;;;6.50;4.10;;;;;;;11.46;nan;101212.66;5082502;28;20115;-51
2021/05/09 05:41:16;;;;;;;6.93;4.55;;;;;;;11.79;nan;101205.72;5081108;28;20032;-52
2021/05/09 05:43:42;;;;;;;6.47;3.95;;;;;;;11.90;nan;101212.06;5083755;28;20016;-48
2021/05/09 05:46:07;;;;;;;6.75;4.97;;;;;;;12.13;nan;101219.91;5079289;28;20449;-48
2021/05/09 05:48:32;;;;;;;9.40;4.05;;;;;;;12.29;nan;101211.00;5082949;28;20027;-49
2021/05/09 05:50:58;;;;;;;7.65;4.63;;;;;;;12.44;nan;101210.41;5081422;28;20032;-49
2021/05/09 05:53:25;;;;;;;5.90;3.92;;;;;;;12.54;nan;101215.09;5085094;28;20442;-51
2021/05/09 05:55:53;;;;;;;5.70;4.03;;;;;;;12.74;nan;101209.16;5078251;28;20028;-50
2021/05/09 05:58:19;;;;;;;4.68;3.40;;;;;;;12.86;nan;101213.34;5082660;28;20020;-49
2021/05/09 06:00:46;;;;;;;7.05;4.32;;;;;;;12.87;nan;101214.97;5080351;28;20033;-49
2021/05/09 06:03:11;;;;;;;6.07;3.83;;;;;;;12.98;nan;101222.09;5088152;28;20243;-52
2021/05/09 06:05:37;;;;;;;5.65;4.03;;;;;;;13.11;nan;101226.28;5077286;28;20123;-49
2021/05/09 06:08:04;;;;;;;5.47;3.70;;;;;;;13.30;nan;101219.50;5064618;28;20024;-49
2021/05/09 06:10:30;;;;;;;5.20;3.42;;;;;;;13.41;nan;101230.34;5079301;28;20024;-51
2021/05/09 06:12:56;;;;;;;5.80;4.05;;;;;;;13.42;nan;101219.31;5080724;28;20567;-49
2021/05/09 06:15:22;;;;;;;6.68;4.10;;;;;;;13.71;nan;101221.72;5080759;28;20036;-52
2021/05/09 06:17:48;;;;;;;7.90;3.97;;;;;;;13.98;nan;101218.97;5082603;28;20294;-50
2021/05/09 06:20:14;;;;;;;7.03;4.43;;;;;;;14.13;nan;101222.56;5082054;28;20059;-51
2021/05/09 06:22:40;;;;;;;6.13;4.20;;;;;;;14.32;nan;101219.44;5081894;28;20708;-51
2021/05/09 06:25:07;;;;;;;6.50;3.90;;;;;;;14.41;nan;101218.69;5084441;28;20029;-50
2021/05/09 06:27:32;;;;;;;6.47;3.63;;;;;;;14.70;nan;101216.41;5084037;28;21037;-52
2021/05/09 06:29:58;;;;;;;5.68;3.80;;;;;;;14.82;nan;101216.19;5083247;28;20035;-50
2021/05/09 06:32:23;;;;;;;8.77;3.72;;;;;;;14.97;nan;101218.13;5083095;28;20217;-51
2021/05/09 06:34:49;;;;;;;4.63;3.50;;;;;;;15.18;nan;101214.41;5082081;28;20046;-50
2021/05/09 06:37:15;;;;;;;5.18;3.22;;;;;;;15.36;nan;101219.28;5080807;28;20027;-53
2021/05/09 06:39:41;;;;;;;4.80;3.47;;;;;;;15.42;nan;101217.41;5086426;28;20077;-49
2021/05/09 06:42:07;;;;;;;4.45;3.50;;;;;;;15.46;nan;101217.69;5085430;28;20032;-52
2021/05/09 06:44:39;;;;;;;5.28;3.03;;;;;;;15.05;nan;101209.50;5083814;28;20045;-52
2021/05/09 06:47:05;;;;;;;5.50;3.47;;;;;;;15.25;nan;101206.03;5083813;28;20082;-51
2021/05/09 06:49:32;;;;;;;4.70;3.17;;;;;;;15.53;nan;101208.22;5082737;28;20519;-51
2021/05/09 06:51:58;;;;;;;4.45;3.00;;;;;;;15.66;nan;101206.94;5081812;28;20059;-51
2021/05/09 06:54:25;;;;;;;4.03;3.30;;;;;;;15.68;nan;101204.75;5082172;28;20078;-51
2021/05/09 06:56:51;;;;;;;3.45;3.00;;;;;;;15.39;nan;101207.94;5081408;28;20085;-52
2021/05/09 06:59:17;;;;;;;4.13;2.83;;;;;;;15.71;nan;101204.22;5083056;28;20277;-52
2021/05/09 07:01:43;;;;;;;4.82;2.92;;;;;;;15.85;nan;101208.00;5080340;28;20024;-51
2021/05/09 07:04:09;;;;;;;3.67;2.50;;;;;;;15.49;nan;101215.25;5079977;28;20023;-49
2021/05/09 07:06:35;;;;;;;4.20;2.83;;;;;;;15.29;nan;101213.34;5080270;28;20035;-51
2021/05/09 07:09:01;;;;;;;3.85;2.22;;;;;;;15.41;nan;101221.19;5048954;22;20041;-75
2021/05/09 07:11:27;;;;;;;5.05;2.95;;;;;;;15.84;nan;101209.06;5051288;28;20035;-77
2021/05/09 07:13:53;;;;;;;4.90;2.88;;;;;;;15.62;nan;101214.75;5058551;28;20023;-77
2021/05/09 07:16:19;;;;;;;3.30;2.85;;;;;;;15.77;nan;101216.63;5040576;28;20110;-78
2021/05/09 07:18:45;;;;;;;4.50;2.83;;;;;;;15.79;nan;101205.56;5045487;28;20028;-78
2021/05/09 07:21:16;;;;;;;4.63;2.78;;;;;;;15.83;nan;101209.34;5062793;28;20025;-78
2021/05/09 07:26:11;;;;;;;4.75;2.80;;;;;;;15.94;nan;101214.44;5052437;28;20060;-52
2021/05/09 07:28:37;;;;;;;4.20;2.60;;;;;;;16.29;nan;101216.28;5055813;28;20040;-51
2021/05/09 07:31:02;;;;;;;2.83;2.45;;;;;;;16.15;nan;101217.94;5059473;28;20263;-53
2021/05/09 07:33:28;;;;;;;3.00;2.40;;;;;;;16.02;nan;101216.63;5063597;28;20056;-50
2021/05/09 07:35:53;;;;;;;4.85;2.53;;;;;;;16.15;nan;101215.22;5066597;28;20028;-50
2021/05/09 07:38:19;;;;;;;4.15;2.40;;;;;;;16.18;nan;101208.50;5062575;28;20035;-51
2021/05/09 07:40:44;;;;;;;4.80;2.55;;;;;;;16.45;nan;101216.25;5063797;28;20123;-53
2021/05/09 07:43:11;;;;;;;6.55;2.50;;;;;;;16.69;nan;101208.31;5059758;28;20040;-51
2021/05/09 07:45:36;;;;;;;6.30;3.15;;;;;;;16.43;nan;101208.41;5061594;28;20598;-52
2021/05/09 07:48:02;;;;;;;4.30;2.75;;;;;;;16.40;nan;101206.25;5061187;28;20094;-52
2021/05/09 07:50:28;;;;;;;5.32;2.65;;;;;;;16.20;nan;101200.91;5058334;28;20012;-51
2021/05/09 07:52:58;;;;;;;2.25;2.05;;;;;;;16.12;nan;101191.44;5058206;28;20115;-51
2021/05/09 07:55:23;;;;;;;3.95;2.75;;;;;;;15.99;nan;101195.56;5057158;28;20035;-51
2021/05/09 07:57:49;;;;;;;4.50;2.63;;;;;;;16.25;nan;101190.88;5058732;28;20040;-53
2021/05/09 08:00:16;;;;;;;2.95;2.40;;;;;;;15.85;nan;101183.69;5059715;28;20029;-54
2021/05/09 08:02:44;;;;;;;3.35;2.67;;;;;;;15.80;nan;101185.56;5064029;28;20072;-51
2021/05/09 08:05:10;;;;;;;3.80;2.47;;;;;;;16.50;nan;101179.16;5058389;28;20044;-51
2021/05/09 08:07:48;;;;;;;3.25;2.55;;;;;;;17.24;nan;101185.56;5059957;28;20024;-51
2021/05/09 08:10:13;;;;;;;4.05;2.67;;;;;;;17.50;nan;101195.09;5062549;28;20032;-51
2021/05/09 08:12:38;;;;;;;3.58;2.20;;;;;;;17.97;nan;101185.50;5057610;28;20032;-50
2021/05/09 08:15:05;;;;;;;6.10;2.60;;;;;;;18.31;nan;101184.56;5061732;28;20390;-50
2021/05/09 08:17:30;;;;;;;6.57;2.45;;;;;;;17.93;nan;101186.34;5046467;28;20517;-50
2021/05/09 08:19:56;;;;;;;3.83;2.08;;;;;;;17.32;nan;101193.06;5062042;28;20058;-48
2021/05/09 08:22:21;;;;;;;3.83;2.80;;;;;;;18.26;nan;101188.16;5059589;28;20449;-51
2021/05/09 08:24:47;;;;;;;5.35;3.38;;;;;;;18.86;nan;101183.13;5063737;28;20111;-52
2021/05/09 08:27:12;;;;;;;4.35;2.92;;;;;;;19.05;nan;101179.59;5060162;28;20615;-52
2021/05/09 08:29:38;;;;;;;2.83;2.30;;;;;;;19.16;nan;101172.88;5062015;28;20171;-49
2021/05/09 08:32:03;;;;;;;3.90;2.90;;;;;;;18.86;nan;101180.41;5063122;28;20059;-48
2021/05/09 08:34:29;;;;;;;4.47;2.95;;;;;;;18.70;nan;101178.97;5060889;28;20087;-52
2021/05/09 08:36:55;;;;;;;3.47;2.70;;;;;;;17.73;nan;101187.34;5063832;28;20094;-49
2021/05/09 08:39:20;;;;;;;3.20;2.80;;;;;;;18.54;nan;101178.34;5063210;28;20054;-50
2021/05/09 08:41:48;;;;;;;4.05;2.53;;;;;;;18.85;nan;101184.22;5045584;28;20067;-51
2021/05/09 08:44:14;;;;;;;3.60;2.50;;;;;;;18.40;nan;101182.84;5059791;28;20063;-50
2021/05/09 08:46:43;;;;;;;3.97;2.30;;;;;;;17.94;nan;101180.63;5061489;28;20111;-50
2021/05/09 08:49:11;;;;;;;3.63;3.17;;;;;;;18.64;nan;101189.09;5061165;28;20043;-50
2021/05/09 08:51:37;;;;;;;5.80;2.97;;;;;;;19.07;nan;101169.25;5061433;28;20397;-49
2021/05/09 08:54:03;;;;;;;4.05;2.72;;;;;;;19.22;nan;101172.53;5062394;28;20354;-49
2021/05/09 08:56:29;;;;;;;4.03;2.65;;;;;;;18.91;nan;101166.75;5061745;28;20077;-52
2021/05/09 08:58:55;;;;;;;5.28;3.15;;;;;;;19.41;nan;101166.25;5061760;28;20051;-50
2021/05/09 09:01:27;;;;;;;3.55;2.70;;;;;;;19.75;nan;101164.06;5042560;28;21803;-52
2021/05/09 09:03:52;;;;;;;4.65;2.95;;;;;;;20.01;nan;101160.88;5059004;28;20175;-51
2021/05/09 09:06:47;;;;;;;4.32;2.63;;;;;;;19.82;nan;101169.91;5059383;28;20111;-51
2021/05/09 09:09:19;;;;;;;4.57;2.55;;;;;;;20.21;nan;101169.44;5060536;28;20021;-51
2021/05/09 09:11:53;;;;;;;3.35;2.70;;;;;;;20.22;nan;101160.16;5058933;28;20029;-51
2021/05/09 09:14:25;;;;;;;4.07;2.20;;;;;;;20.26;nan;101159.56;5059213;28;20466;-52
2021/05/09 09:17:09;;;;;;;3.25;2.53;;;;;;;20.43;nan;101166.03;5060687;28;20146;-50
2021/05/09 09:19:35;;;;;;;3.50;2.42;;;;;;;20.79;nan;101155.19;5060166;28;20485;-52
2021/05/09 09:22:00;;;;;;;3.97;2.33;;;;;;;20.97;nan;101155.31;5060963;28;20075;-50
2021/05/09 09:24:26;;;;;;;3.28;2.50;;;;;;;21.14;nan;101147.28;5063986;28;20477;-52
2021/05/09 09:26:53;;;;;;;3.42;2.33;;;;;;;21.41;nan;101152.66;5064199;28;20195;-54
2021/05/09 09:29:31;;;;;;;4.05;2.20;;;;;;;21.58;nan;101151.97;5057388;28;20024;-51
2021/05/09 09:32:06;;;;;;;2.60;2.08;;;;;;;21.34;nan;101148.75;5061724;28;20032;-52
2021/05/09 09:34:39;;;;;;;;;;;;;;;21.24;nan;101154.44;5065623;28;20024;-52
2021/05/09 09:37:05;;;;;;;3.90;2.50;;;;;;;21.49;nan;101161.19;5065877;28;19916;-49
2021/05/09 09:39:50;;;;;;;3.05;2.42;;;;;;;21.75;nan;101145.81;5066202;28;20050;-52
2021/05/09 09:42:34;;;;;;;2.65;1.98;;;;;;;20.34;nan;101150.69;5062850;28;20390;-52
2021/05/09 09:45:22;;;;;;;2.30;1.90;;;;;;;20.09;nan;101147.38;5063723;28;20075;-53
2021/05/09 09:48:02;;;;;;;3.67;2.20;;;;;;;20.30;nan;101158.66;5065289;28;20556;-53
2021/05/09 09:50:50;;;;;;;2.33;1.92;;;;;;;20.16;nan;101158.66;5065818;28;20021;-49
2021/05/09 09:53:29;;;;;;;2.22;1.98;;;;;;;20.31;nan;101148.59;5064620;28;20115;-49
2021/05/09 09:56:19;;;;;;;3.38;2.10;;;;;;;20.46;nan;101138.19;5058643;28;20116;-51
2021/05/09 09:58:46;;;;;;;2.47;1.92;;;;;;;20.80;nan;101145.91;5061242;28;20242;-51
2021/05/09 10:01:14;;;;;;;1.80;1.60;;;;;;;20.98;nan;101143.31;5058005;28;20024;-50
2021/05/09 10:03:40;;;;;;;3.42;2.08;;;;;;;21.60;nan;101138.81;5043679;28;20289;-51
2021/05/09 10:06:07;;;;;;;2.58;2.38;;;;;;;21.85;nan;101142.78;5043305;28;20071;-49
2021/05/09 10:08:35;;;;;;;2.22;1.67;;;;;;;21.94;nan;101124.53;5061290;28;20478;-51
2021/05/09 10:11:02;;;;;;;3.42;1.75;;;;;;;21.16;nan;101131.44;5058329;28;20032;-53
2021/05/09 10:13:29;;;;;;;2.30;2.10;;;;;;;21.95;nan;101128.88;5061445;28;20115;-52
2021/05/09 10:15:55;;;;;;;5.38;3.42;;;;;;;22.03;nan;101113.66;5064340;28;20056;-53
2021/05/09 10:18:21;;;;;;;3.78;1.98;;;;;;;21.65;nan;101129.69;5064217;28;20708;-54
2021/05/09 10:20:48;;;;;;;1.95;1.50;;;;;;;22.08;nan;101126.38;5064069;28;20052;-52
2021/05/09 10:23:14;;;;;;;4.30;3.03;;;;;;;22.30;nan;101118.09;5063627;28;20032;-53
2021/05/09 10:25:57;;;;;;;5.70;3.05;;;;;;;22.13;nan;101118.06;5064193;28;20031;-51
2021/05/09 10:28:35;;;;;;;5.30;3.45;;;;;;;22.82;nan;101116.28;5061720;28;20146;-52
2021/05/09 10:31:01;;;;;;;3.15;2.30;;;;;;;21.82;nan;101113.41;5062589;28;20075;-54
2021/05/09 10:33:42;;;;;;;3.05;2.05;;;;;;;22.18;nan;101113.25;5045009;28;20266;-51
2021/05/09 10:36:16;;;;;;;3.72;2.20;;;;;;;22.10;nan;101116.78;5063197;28;20098;-50
2021/05/09 10:39:09;;;;;;;1.42;1.10;;;;;;;21.69;nan;101108.84;5063957;28;20198;-53
2021/05/09 10:41:57;;;;;;;3.75;1.40;;;;;;;22.51;nan;101097.25;5058877;28;20094;-51
2021/05/09 10:44:45;;;;;;;3.05;1.40;;;;;;;22.70;nan;101099.69;5044795;28;20187;-53
2021/05/09 10:47:17;;;;;;;2.38;1.25;;;;;;;22.06;nan;101104.06;5062971;28;20074;-51
2021/05/09 10:50:20;;;;;;;1.45;1.35;;;;;;;22.07;nan;101090.09;5060862;28;20040;-52
2021/05/09 10:52:48;;;;;;;1.48;1.38;;;;;;;23.02;nan;101084.75;5063060;28;20030;-51
2021/05/09 10:55:36;;;;;;;1.50;1.33;;;;;;;22.14;nan;101089.66;5055466;28;20029;-52
2021/05/09 10:58:03;;;;;;;3.53;1.30;;;;;;;23.05;nan;101084.09;5057544;28;20029;-52
2021/05/09 11:00:28;;;;;;;3.70;1.55;;;;;;;23.08;nan;101090.84;5060935;28;20034;-51
2021/05/09 11:02:54;;;;;;;2.95;1.77;;;;;;;22.60;nan;101081.66;5060987;28;20041;-54
2021/05/09 11:05:22;;;;;;;2.35;1.40;;;;;;;23.29;nan;101080.03;5060208;28;20703;-51
2021/05/09 11:07:47;;;;;;;1.58;1.33;;;;;;;23.49;nan;101063.72;5059198;28;20401;-52
2021/05/09 11:10:31;;;;;;;3.13;1.20;;;;;;;23.69;nan;101062.22;5059524;28;20063;-53
2021/05/09 11:13:05;;;;;;;1.52;1.30;;;;;;;22.92;nan;101065.94;5058840;28;20037;-55
2021/05/09 11:15:30;;;;;;;2.40;0.95;;;;;;;22.90;nan;101070.94;5060774;28;20071;-54
2021/05/09 11:17:56;;;;;;;1.50;1.02;;;;;;;23.35;nan;101054.13;5056166;28;20091;-53
2021/05/09 11:20:23;;;;;;;1.20;1.10;;;;;;;22.63;nan;101061.13;5056927;28;20032;-52
2021/05/09 11:22:59;;;;;;;1.55;0.95;;;;;;;23.20;nan;101045.34;5059008;28;20039;-52
2021/05/09 11:25:33;;;;;;;2.67;1.20;;;;;;;22.84;nan;101044.91;5062125;28;20032;-53
2021/05/09 11:27:59;;;;;;;;;;;;;;;23.24;nan;101045.47;5062560;28;20036;-54
2021/05/09 11:30:35;;;;;;;1.10;1.00;;;;;;;23.41;nan;101044.63;5060044;28;19923;-52
2021/05/09 11:33:00;;;;;;;1.02;0.82;;;;;;;23.72;nan;101031.50;5059547;28;21129;-55
2021/05/09 11:35:39;;;;;;;1.10;1.00;;;;;;;23.42;nan;101040.75;5061556;28;20028;-54
2021/05/09 11:38:15;;;;;;;1.40;1.00;;;;;;;23.72;nan;101044.38;5058198;28;20074;-53
2021/05/09 11:40:41;;;;;;;1.77;1.27;;;;;;;24.20;nan;101038.44;5061005;28;20033;-51
2021/05/09 11:43:14;;;;;;;1.83;1.08;;;;;;;23.68;nan;101035.19;5059715;28;20367;-51
2021/05/09 11:46:10;;;;;;;4.35;1.05;;;;;;;23.52;nan;101029.47;5050783;28;20031;-53
2021/05/09 11:48:35;;;;;;;1.80;1.08;;;;;;;24.06;nan;101037.91;5061742;28;20040;-54